Time;durP1;ratioP1;P1;durP2;ratioP2;P2;SDS_P1;SDS_P2;PMS_P1;PMS_P2;Temp;Humidity;BMP_temperature;BMP_pressure;BME280_temperature;BME280_humidity;BME280_pressure;Samples;Min_cycle;Max_cycle;Signal;HPM_P1;HPM_P2
2022/05/27 00:01:08;;;;;;;2.85;1.40;;;13.10;73.80;;;;;;5074245;28;20031;-76
2022/05/27 00:03:34;;;;;;;1.33;1.23;;;13.00;74.20;;;;;;5074238;28;20028;-75
2022/05/27 00:06:00;;;;;;;3.70;1.23;;;12.90;74.80;;;;;;5074248;28;20464;-77
2022/05/27 00:08:25;;;;;;;2.83;1.48;;;12.70;75.40;;;;;;5074134;28;20036;-77
2022/05/27 00:10:51;;;;;;;3.22;1.50;;;12.80;75.40;;;;;;5074057;28;20420;-76
2022/05/27 00:13:17;;;;;;;1.52;1.00;;;12.70;75.40;;;;;;5074074;28;20013;-77
2022/05/27 00:15:42;;;;;;;1.67;1.10;;;12.70;75.40;;;;;;5072827;28;20043;-77
2022/05/27 00:18:08;;;;;;;3.22;1.05;;;12.70;75.40;;;;;;5074032;28;20035;-77
2022/05/27 00:20:35;;;;;;;1.83;1.20;;;12.70;75.70;;;;;;5073785;28;20036;-77
2022/05/27 00:23:00;;;;;;;3.25;1.27;;;12.70;75.70;;;;;;5073544;28;20099;-78
2022/05/27 00:25:26;;;;;;;4.55;1.35;;;12.70;75.60;;;;;;5073934;28;20063;-80
2022/05/27 00:27:51;;;;;;;2.42;1.42;;;12.70;75.50;;;;;;5073751;28;20484;-76
2022/05/27 00:30:17;;;;;;;3.05;1.40;;;12.60;75.70;;;;;;5073598;28;20040;-76
2022/05/27 00:32:42;;;;;;;7.88;1.55;;;12.60;76.00;;;;;;5073666;28;20027;-78
2022/05/27 00:35:09;;;;;;;1.15;1.02;;;12.50;76.50;;;;;;5073020;28;20086;-76
2022/05/27 00:37:35;;;;;;;1.48;1.27;;;12.50;76.80;;;;;;5073786;28;20040;-76
2022/05/27 00:40:00;;;;;;;3.70;1.80;;;12.50;76.40;;;;;;5073485;28;20029;-75
2022/05/27 00:42:26;;;;;;;1.95;1.60;;;12.50;76.40;;;;;;5073539;28;20020;-77
2022/05/27 00:44:51;;;;;;;3.50;2.03;;;12.50;76.30;;;;;;5072178;28;20024;-77
2022/05/27 00:47:20;;;;;;;4.47;2.08;;;12.50;76.30;;;;;;5073341;28;20017;-78
2022/05/27 00:49:52;;;;;;;4.55;1.90;;;12.50;76.30;;;;;;5073336;28;20496;-77
2022/05/27 00:52:20;;;;;;;3.17;2.10;;;12.40;76.30;;;;;;5073583;28;20035;-78
2022/05/27 00:54:46;;;;;;;3.40;2.17;;;12.40;76.40;;;;;;5073307;28;20028;-75
2022/05/27 00:57:19;;;;;;;4.90;2.13;;;12.50;76.70;;;;;;5073327;28;20031;-77
2022/05/27 00:59:58;;;;;;;3.30;2.03;;;12.40;76.40;;;;;;5073342;28;20048;-77
2022/05/27 01:02:24;;;;;;;2.72;1.50;;;12.50;76.40;;;;;;5072991;28;20034;-77
2022/05/27 01:04:50;;;;;;;2.05;1.52;;;12.50;76.40;;;;;;5073286;28;20013;-77
2022/05/27 01:07:17;;;;;;;5.95;1.80;;;12.50;76.40;;;;;;5073155;28;20074;-77
2022/05/27 01:09:46;;;;;;;1.80;1.40;;;12.50;76.30;;;;;;5073179;28;20046;-76
2022/05/27 01:12:33;;;;;;;1.92;1.48;;;12.50;76.30;;;;;;5073533;28;20017;-76
2022/05/27 01:15:26;;;;;;;2.38;1.25;;;12.50;76.40;;;;;;5073046;28;20102;-78
2022/05/27 01:18:09;;;;;;;2.55;1.13;;;12.50;76.60;;;;;;5073065;28;20499;-78
2022/05/27 01:21:00;;;;;;;1.63;1.10;;;12.40;76.70;;;;;;5072988;28;20020;-80
2022/05/27 01:23:37;;;;;;;2.05;1.45;;;12.30;76.90;;;;;;5072916;28;20492;-77
2022/05/27 01:26:47;;;;;;;2.80;1.35;;;12.30;77.00;;;;;;5072904;28;20365;-77
2022/05/27 01:29:19;;;;;;;3.30;1.60;;;12.30;76.80;;;;;;5056671;28;20075;-77
2022/05/27 01:31:53;;;;;;;2.65;1.40;;;12.20;77.10;;;;;;5072983;28;20090;-77
2022/05/27 01:34:49;;;;;;;1.40;1.17;;;12.20;77.10;;;;;;5072877;28;20090;-76
2022/05/27 01:37:26;;;;;;;2.75;1.48;;;12.20;77.10;;;;;;5073056;28;20100;-77
2022/05/27 01:40:20;;;;;;;4.25;1.35;;;12.20;77.20;;;;;;5072811;28;20025;-77
2022/05/27 01:43:04;;;;;;;2.60;1.30;;;12.20;77.00;;;;;;5072590;28;20024;-78
2022/05/27 01:45:58;;;;;;;1.45;1.20;;;12.20;76.80;;;;;;5074700;28;20020;-76
2022/05/27 01:48:34;;;;;;;3.33;1.40;;;12.00;77.30;;;;;;5076821;28;20039;-76
2022/05/27 01:51:10;;;;;;;4.63;1.27;;;12.00;77.90;;;;;;5076757;28;20035;-77
2022/05/27 01:53:55;;;;;;;4.10;1.27;;;12.00;77.80;;;;;;5076799;28;20027;-77
2022/05/27 01:56:28;;;;;;;1.60;1.08;;;12.00;78.00;;;;;;5076818;28;20031;-77
2022/05/27 01:59:01;;;;;;;3.22;1.13;;;12.00;77.90;;;;;;5076706;28;20373;-77
2022/05/27 02:01:33;;;;;;;3.08;1.35;;;12.00;78.00;;;;;;5076522;28;20024;-76
2022/05/27 02:04:06;;;;;;;2.90;1.30;;;12.10;77.90;;;;;;5076625;28;20542;-77
2022/05/27 02:06:42;;;;;;;2.75;1.00;;;12.10;77.70;;;;;;5076615;28;20499;-77
2022/05/27 02:09:21;;;;;;;3.10;1.30;;;12.10;77.60;;;;;;5076503;28;20481;-77
2022/05/27 02:11:50;;;;;;;3.25;1.58;;;12.10;77.40;;;;;;5076412;28;20044;-77
2022/05/27 02:14:22;;;;;;;4.03;1.50;;;12.10;77.50;;;;;;5076432;28;20077;-77
2022/05/27 02:16:52;;;;;;;2.10;1.40;;;12.00;77.40;;;;;;5076342;28;20024;-77
2022/05/27 02:19:46;;;;;;;1.67;1.23;;;12.00;77.40;;;;;;5076615;28;20023;-77
2022/05/27 02:22:21;;;;;;;2.10;1.25;;;12.00;77.70;;;;;;5076295;28;20113;-77
2022/05/27 02:24:56;;;;;;;2.40;1.30;;;11.90;78.00;;;;;;5076212;28;20031;-76
2022/05/27 02:27:25;;;;;;;;;;;11.90;78.30;;;;;;5076645;28;20102;-77
2022/05/27 02:29:55;;;;;;;1.65;1.30;;;11.90;78.40;;;;;;5075983;28;19916;-78
2022/05/27 02:32:32;;;;;;;3.20;1.45;;;11.90;78.20;;;;;;5076077;28;20021;-77
2022/05/27 02:35:07;;;;;;;2.30;1.60;;;11.90;78.10;;;;;;5076066;28;20020;-77
2022/05/27 02:37:36;;;;;;;4.38;2.00;;;11.80;78.00;;;;;;5074816;28;20021;-77
2022/05/27 02:40:07;;;;;;;1.83;1.50;;;11.80;78.50;;;;;;5075885;28;20059;-79
2022/05/27 02:43:10;;;;;;;2.53;1.60;;;11.70;79.00;;;;;;5075765;28;20036;-79
2022/05/27 02:45:51;;;;;;;1.77;1.50;;;11.70;79.30;;;;;;5075771;28;20032;-80
2022/05/27 02:48:40;;;;;;;4.03;1.98;;;11.70;79.30;;;;;;5075650;28;20496;-80
2022/05/27 02:51:35;;;;;;;5.95;2.10;;;11.70;79.30;;;;;;5075757;28;20107;-80
2022/05/27 02:54:24;;;;;;;2.08;1.70;;;11.80;79.10;;;;;;5074372;28;20040;-80
2022/05/27 02:57:05;;;;;;;3.55;2.08;;;11.70;79.20;;;;;;5074910;28;20104;-79
2022/05/27 02:59:31;;;;;;;5.60;2.40;;;11.70;79.10;;;;;;5075574;28;20012;-81
2022/05/27 03:02:26;;;;;;;3.63;2.00;;;11.70;79.30;;;;;;5075510;28;20469;-80
2022/05/27 03:05:00;;;;;;;3.83;2.15;;;11.60;79.50;;;;;;5066630;28;20028;-80
2022/05/27 03:07:47;;;;;;;3.17;1.98;;;11.70;80.20;;;;;;5075519;28;20100;-81
2022/05/27 03:10:38;;;;;;;3.17;2.05;;;11.70;80.20;;;;;;5074022;28;20052;-79
2022/05/27 03:13:25;;;;;;;5.78;2.40;;;11.70;80.20;;;;;;5075315;28;20358;-81
2022/05/27 03:16:06;;;;;;;3.20;1.95;;;11.60;80.30;;;;;;5075275;28;20020;-82
2022/05/27 03:19:16;;;;;;;4.47;2.00;;;11.60;80.50;;;;;;5075328;28;20020;-79
2022/05/27 03:22:02;;;;;;;3.00;2.00;;;11.60;80.80;;;;;;5042256;28;20082;-79
2022/05/27 03:25:00;;;;;;;3.08;1.98;;;11.60;80.60;;;;;;5076264;28;20030;-80
2022/05/27 03:27:53;;;;;;;3.65;1.92;;;11.70;80.30;;;;;;5075040;28;20376;-77
2022/05/27 03:30:25;;;;;;;5.50;2.70;;;11.60;80.30;;;;;;5079993;28;20036;-77
2022/05/27 03:33:01;;;;;;;4.55;3.05;;;11.60;80.10;;;;;;5084944;28;20051;-80
2022/05/27 03:35:47;;;;;;;3.55;2.72;;;11.60;80.40;;;;;;5084715;28;20029;-80
2022/05/27 03:38:24;;;;;;;3.17;2.53;;;11.70;80.40;;;;;;5087331;28;20077;-79
2022/05/27 03:41:08;;;;;;;4.05;2.42;;;11.60;80.20;;;;;;5075375;28;20500;-81
2022/05/27 03:43:36;;;;;;;3.28;2.38;;;11.70;80.30;;;;;;5073532;28;20515;-80
2022/05/27 03:46:03;;;;;;;4.05;2.75;;;11.80;80.00;;;;;;5074724;28;20032;-78
2022/05/27 03:48:31;;;;;;;5.00;2.80;;;11.70;80.20;;;;;;5074684;28;20027;-80
2022/05/27 03:51:18;;;;;;;6.55;3.53;;;11.80;80.20;;;;;;5074297;28;20027;-77
2022/05/27 03:56:28;;;;;;;4.70;3.15;;;11.80;80.00;;;;;;5074519;28;20066;-77
2022/05/27 03:58:54;;;;;;;3.63;2.85;;;11.70;80.30;;;;;;5074456;28;20047;-77
2022/05/27 04:01:25;;;;;;;3.85;2.47;;;11.90;80.20;;;;;;5074298;28;20569;-77
2022/05/27 04:03:54;;;;;;;4.45;1.95;;;11.90;79.80;;;;;;5073118;28;20077;-77
2022/05/27 04:06:19;;;;;;;2.90;1.80;;;11.90;79.60;;;;;;5074266;28;20095;-78
2022/05/27 04:08:45;;;;;;;4.57;1.73;;;12.00;79.50;;;;;;5073068;28;20115;-79
2022/05/27 04:11:10;;;;;;;2.50;1.52;;;12.00;79.40;;;;;;5074132;28;20077;-81
2022/05/27 04:13:36;;;;;;;4.55;1.90;;;12.10;79.20;;;;;;5074010;28;20062;-79
2022/05/27 04:16:01;;;;;;;2.30;1.50;;;12.20;78.80;;;;;;5074086;28;20021;-80
2022/05/27 04:18:27;;;;;;;4.07;1.80;;;12.30;78.70;;;;;;5074238;28;20043;-79
2022/05/27 04:20:53;;;;;;;3.67;1.55;;;12.30;78.50;;;;;;5072721;28;20393;-78
2022/05/27 04:23:19;;;;;;;2.78;1.30;;;12.40;78.30;;;;;;5073988;28;20078;-78
2022/05/27 04:25:49;;;;;;;2.75;1.42;;;12.40;78.00;;;;;;5073783;28;20028;-78
2022/05/27 04:28:14;;;;;;;1.15;0.90;;;12.40;77.90;;;;;;5073682;28;20060;-77
2022/05/27 04:30:41;;;;;;;3.80;1.17;;;12.50;78.00;;;;;;5073832;28;20090;-77
2022/05/27 04:33:08;;;;;;;1.73;1.20;;;12.50;77.70;;;;;;5073675;28;20473;-77
2022/05/27 04:35:34;;;;;;;3.08;1.42;;;12.50;77.80;;;;;;5073697;28;20020;-76
2022/05/27 04:37:59;;;;;;;1.35;1.17;;;12.60;77.30;;;;;;5073540;28;20028;-77
2022/05/27 04:40:25;;;;;;;3.40;1.70;;;12.60;77.40;;;;;;5073413;28;20032;-77
2022/05/27 04:42:50;;;;;;;3.65;1.48;;;12.50;78.00;;;;;;5073592;28;20420;-77
2022/05/27 04:45:16;;;;;;;4.43;2.08;;;12.40;78.50;;;;;;5072225;28;20354;-78
2022/05/27 04:47:41;;;;;;;2.67;1.80;;;12.40;78.80;;;;;;5073403;28;20030;-77
2022/05/27 04:50:10;;;;;;;2.90;1.60;;;12.50;79.10;;;;;;5073287;28;20499;-76
2022/05/27 04:52:36;;;;;;;2.30;1.60;;;12.50;79.00;;;;;;5073147;28;20020;-76
2022/05/27 04:55:07;;;;;;;4.72;1.95;;;12.60;79.00;;;;;;5073349;28;20028;-76
2022/05/27 04:57:39;;;;;;;5.40;1.92;;;12.70;78.90;;;;;;5072559;28;20016;-76
2022/05/27 05:00:18;;;;;;;4.45;2.20;;;12.80;78.70;;;;;;5072704;28;20098;-77
2022/05/27 05:02:44;;;;;;;3.25;2.10;;;12.80;78.40;;;;;;5073186;28;20104;-77
2022/05/27 05:05:12;;;;;;;4.13;2.05;;;12.90;78.40;;;;;;5073169;28;20485;-76
2022/05/27 05:07:40;;;;;;;5.18;1.90;;;13.00;78.40;;;;;;5073221;28;20028;-77
2022/05/27 05:10:08;;;;;;;2.47;1.77;;;13.10;78.20;;;;;;5073069;28;20496;-77
2022/05/27 05:12:33;;;;;;;2.42;1.67;;;13.20;78.00;;;;;;5073075;28;20024;-76
2022/05/27 05:14:59;;;;;;;2.10;1.30;;;13.30;77.90;;;;;;5073129;28;20380;-77
2022/05/27 05:17:24;;;;;;;2.67;1.60;;;13.40;77.60;;;;;;5072858;28;20513;-76
2022/05/27 05:19:53;;;;;;;2.95;1.73;;;13.50;77.40;;;;;;5072590;28;20021;-78
2022/05/27 05:22:20;;;;;;;3.67;1.50;;;13.60;77.20;;;;;;5073061;28;20020;-76
2022/05/27 05:24:45;;;;;;;2.38;1.80;;;13.70;76.90;;;;;;5072900;28;20421;-78
2022/05/27 05:27:11;;;;;;;3.10;1.42;;;13.80;76.50;;;;;;5071585;28;20055;-78
2022/05/27 05:29:37;;;;;;;3.47;1.50;;;13.90;77.20;;;;;;5072577;28;20600;-77
2022/05/27 05:32:04;;;;;;;2.63;1.60;;;14.00;76.30;;;;;;5073142;28;20132;-78
2022/05/27 05:34:30;;;;;;;4.65;2.35;;;14.10;76.20;;;;;;5072895;28;20028;-78
2022/05/27 05:36:56;;;;;;;1.90;1.33;;;14.20;76.10;;;;;;5072584;28;20021;-76
2022/05/27 05:39:23;;;;;;;3.70;1.70;;;14.20;76.00;;;;;;5072753;28;20078;-78
2022/05/27 05:42:00;;;;;;;5.18;1.60;;;14.30;75.50;;;;;;5072573;28;20021;-78
2022/05/27 05:44:26;;;;;;;7.28;2.15;;;14.40;75.60;;;;;;5072746;28;20052;-79
2022/05/27 05:46:53;;;;;;;2.20;1.60;;;14.50;75.50;;;;;;5072667;28;20063;-79
2022/05/27 05:49:20;;;;;;;9.10;1.80;;;14.50;74.80;;;;;;5072199;28;20381;-78
2022/05/27 05:51:45;;;;;;;2.95;1.23;;;14.70;74.60;;;;;;5072437;28;20032;-77
2022/05/27 05:54:11;;;;;;;3.17;1.52;;;14.80;73.00;;;;;;5072285;28;20406;-77
2022/05/27 05:56:37;;;;;;;2.65;1.55;;;14.90;72.80;;;;;;5072371;28;20051;-78
2022/05/27 05:59:03;;;;;;;3.05;1.50;;;14.90;71.70;;;;;;5072142;28;20028;-78
2022/05/27 06:01:29;;;;;;;2.45;1.35;;;14.60;72.10;;;;;;5072177;28;20100;-77
2022/05/27 06:03:55;;;;;;;3.67;1.17;;;14.70;72.70;;;;;;5072229;28;20159;-79
2022/05/27 06:06:21;;;;;;;5.05;1.38;;;14.70;72.30;;;;;;5071984;28;20032;-77
2022/05/27 06:08:47;;;;;;;2.38;1.52;;;14.80;72.40;;;;;;5071969;28;20036;-77
2022/05/27 06:11:12;;;;;;;2.25;1.27;;;14.70;72.50;;;;;;5071971;28;20067;-77
2022/05/27 06:13:40;;;;;;;5.70;1.70;;;14.80;72.30;;;;;;5072009;28;20033;-77
2022/05/27 06:16:06;;;;;;;4.32;1.65;;;14.80;72.70;;;;;;5071947;28;20423;-76
2022/05/27 06:18:32;;;;;;;6.45;1.70;;;14.90;71.60;;;;;;5077149;28;20028;-75
2022/05/27 06:20:59;;;;;;;3.38;1.50;;;14.90;71.50;;;;;;5080782;28;20036;-76
2022/05/27 06:23:28;;;;;;;3.65;1.50;;;14.90;71.50;;;;;;5081208;28;20111;-76
2022/05/27 06:26:04;;;;;;;3.78;1.35;;;15.00;71.60;;;;;;5079440;28;20078;-77
2022/05/27 06:36:44;;;;;;;3.35;1.30;;;15.10;71.00;;;;;;5075653;28;20443;-78
2022/05/27 06:39:10;;;;;;;3.40;1.30;;;15.10;71.00;;;;;;5075119;28;20489;-78
2022/05/27 06:41:36;;;;;;;3.72;1.67;;;15.10;71.40;;;;;;5075465;28;20067;-78
2022/05/27 06:44:03;;;;;;;5.15;3.00;;;15.00;71.20;;;;;;5075274;28;20044;-78
2022/05/27 06:46:30;;;;;;;5.28;1.40;;;14.90;72.10;;;;;;5075214;28;20040;-78
2022/05/27 06:48:55;;;;;;;3.17;1.60;;;14.90;72.40;;;;;;5075030;28;20032;-78
2022/05/27 06:51:21;;;;;;;3.22;1.40;;;15.10;72.00;;;;;;5075153;28;20035;-77
2022/05/27 06:53:47;;;;;;;3.17;1.52;;;15.20;71.60;;;;;;5075033;28;20042;-78
2022/05/27 06:56:13;;;;;;;3.78;1.17;;;15.30;71.30;;;;;;5074938;28;20074;-79
2022/05/27 06:58:40;;;;;;;2.95;1.30;;;15.20;71.20;;;;;;5075043;28;20013;-80
2022/05/27 07:01:07;;;;;;;5.50;1.85;;;15.40;71.20;;;;;;5074807;28;20060;-78
2022/05/27 07:03:32;;;;;;;4.03;1.23;;;15.40;71.30;;;;;;5074542;28;20472;-78
2022/05/27 07:05:59;;;;;;;2.55;1.48;;;15.50;70.80;;;;;;5074989;28;20032;-78
2022/05/27 07:08:24;;;;;;;2.40;1.50;;;15.50;70.50;;;;;;5074645;28;20504;-77
2022/05/27 07:10:50;;;;;;;3.92;1.48;;;15.30;70.50;;;;;;5074863;28;20047;-78
2022/05/27 07:13:15;;;;;;;2.40;1.38;;;15.30;70.90;;;;;;5074599;28;20023;-78
2022/05/27 07:15:42;;;;;;;10.52;1.70;;;15.30;70.40;;;;;;5074553;28;20032;-77
2022/05/27 07:18:08;;;;;;;10.50;2.20;;;15.40;71.50;;;;;;5074700;28;20491;-74
2022/05/27 07:20:36;;;;;;;6.70;1.60;;;15.80;71.80;;;;;;5074618;28;20031;-74
2022/05/27 07:23:03;;;;;;;4.20;1.23;;;16.10;70.30;;;;;;5074784;28;20017;-74
2022/05/27 07:25:29;;;;;;;4.13;1.42;;;16.40;70.00;;;;;;5074545;28;20024;-74
2022/05/27 07:27:54;;;;;;;4.20;1.83;;;16.60;67.80;;;;;;5074194;28;20459;-74
2022/05/27 07:30:20;;;;;;;3.28;1.40;;;16.80;66.50;;;;;;5074403;28;20461;-74
2022/05/27 07:32:46;;;;;;;2.38;1.30;;;16.60;66.60;;;;;;5074513;28;20451;-74
2022/05/27 07:35:12;;;;;;;3.17;1.33;;;16.70;65.80;;;;;;5074520;28;20078;-74
2022/05/27 07:37:38;;;;;;;2.40;1.30;;;16.40;66.70;;;;;;5074180;28;20025;-74
2022/05/27 07:40:04;;;;;;;3.05;0.90;;;16.30;67.80;;;;;;5074330;28;20021;-74
2022/05/27 07:42:30;;;;;;;2.28;1.17;;;16.50;67.70;;;;;;5074070;28;20376;-74
2022/05/27 07:44:56;;;;;;;4.47;1.52;;;16.70;66.90;;;;;;5074081;28;20032;-72
2022/05/27 07:47:21;;;;;;;5.35;1.27;;;17.00;65.10;;;;;;5074011;28;20028;-75
2022/05/27 07:49:47;;;;;;;4.43;1.58;;;17.20;64.50;;;;;;5073907;28;20444;-73
2022/05/27 07:52:12;;;;;;;7.47;1.70;;;17.30;64.60;;;;;;5074236;28;20032;-74
2022/05/27 07:54:38;;;;;;;4.40;1.73;;;16.80;64.80;;;;;;5072605;28;20021;-74
2022/05/27 07:57:23;;;;;;;2.00;1.20;;;16.60;65.70;;;;;;5073986;28;20465;-75
2022/05/27 07:59:55;;;;;;;7.72;1.95;;;16.40;67.10;;;;;;5074202;28;20024;-75
2022/05/27 08:02:22;;;;;;;4.32;1.75;;;16.50;66.90;;;;;;5074167;28;20047;-75
2022/05/27 08:04:47;;;;;;;2.60;1.27;;;16.70;66.30;;;;;;5074115;28;20028;-74
2022/05/27 08:07:13;;;;;;;6.32;1.77;;;16.70;66.40;;;;;;5073746;28;20028;-74
2022/05/27 08:09:39;;;;;;;3.80;1.60;;;16.60;65.90;;;;;;5073194;28;20120;-76
2022/05/27 08:12:06;;;;;;;3.58;1.60;;;16.50;66.10;;;;;;5072627;28;20150;-76
2022/05/27 08:14:31;;;;;;;3.80;1.45;;;16.40;66.20;;;;;;5073832;28;20032;-75
2022/05/27 08:16:58;;;;;;;2.78;1.52;;;16.50;67.30;;;;;;5073849;28;20100;-74
2022/05/27 08:19:23;;;;;;;2.22;1.50;;;16.80;64.80;;;;;;5073642;28;20534;-74
2022/05/27 08:21:49;;;;;;;4.30;1.33;;;16.90;64.20;;;;;;5073504;28;20029;-74
2022/05/27 08:24:15;;;;;;;3.92;1.70;;;16.90;64.40;;;;;;5073654;28;20028;-74
2022/05/27 08:26:41;;;;;;;4.07;1.50;;;17.00;64.40;;;;;;5073921;28;20077;-75
2022/05/27 08:29:08;;;;;;;2.50;1.48;;;17.10;64.10;;;;;;5073715;28;20052;-75
2022/05/27 08:31:34;;;;;;;3.92;1.20;;;17.30;63.40;;;;;;5074602;28;20385;-76
2022/05/27 08:39:30;;;;;;;4.00;1.65;;;17.40;63.10;;;;;;5073453;28;20056;-75
2022/05/27 08:42:26;;;;;;;5.18;1.60;;;17.40;62.70;;;;;;5073118;28;20021;-74
2022/05/27 08:45:13;;;;;;;3.10;1.45;;;17.40;62.90;;;;;;5073033;28;20020;-75
2022/05/27 08:47:46;;;;;;;3.50;1.48;;;17.40;63.20;;;;;;5073129;28;20021;-74
2022/05/27 08:50:33;;;;;;;3.60;1.30;;;17.50;63.20;;;;;;5072628;28;20342;-73
2022/05/27 08:53:01;;;;;;;2.28;1.40;;;17.70;62.90;;;;;;5072741;28;20469;-73
2022/05/27 09:01:21;;;;;;;3.35;1.95;;;17.60;62.90;;;;;;5073084;28;20035;-74
2022/05/27 09:03:55;;;;;;;3.22;1.42;;;17.60;62.20;;;;;;5073003;28;20108;-75
2022/05/27 09:06:38;;;;;;;2.20;1.38;;;17.40;62.70;;;;;;5071473;28;20115;-72
2022/05/27 09:09:06;;;;;;;4.47;1.80;;;17.40;63.20;;;;;;5073032;28;20024;-76
2022/05/27 09:12:07;;;;;;;2.72;1.30;;;17.40;63.00;;;;;;5072763;28;20103;-71
2022/05/27 09:14:36;;;;;;;5.15;2.40;;;17.40;63.00;;;;;;5072626;28;20123;-73
2022/05/27 09:17:05;;;;;;;4.30;1.55;;;17.50;61.80;;;;;;5072510;28;20452;-73
2022/05/27 09:19:42;;;;;;;3.95;1.40;;;17.20;63.40;;;;;;5071147;28;20082;-73
2022/05/27 09:22:22;;;;;;;3.13;1.17;;;17.50;62.70;;;;;;5072574;28;20024;-73
2022/05/27 09:25:34;;;;;;;5.47;1.38;;;17.80;62.10;;;;;;5072161;28;20103;-72
2022/05/27 09:28:17;;;;;;;3.15;1.65;;;18.00;61.20;;;;;;5054669;28;20055;-73
2022/05/27 09:30:42;;;;;;;0.98;0.88;;;18.10;63.00;;;;;;5072443;28;20025;-73
2022/05/27 09:33:13;;;;;;;4.35;1.48;;;18.20;62.30;;;;;;5072372;28;20036;-73
2022/05/27 09:35:59;;;;;;;2.28;1.13;;;18.40;60.50;;;;;;5072295;28;20029;-73
2022/05/27 09:38:29;;;;;;;1.13;1.02;;;18.40;59.00;;;;;;5072326;28;20059;-73
2022/05/27 09:40:58;;;;;;;2.83;1.13;;;18.50;58.20;;;;;;5072528;28;20146;-73
2022/05/27 09:43:40;;;;;;;2.42;1.38;;;18.70;58.10;;;;;;5072348;28;20024;-73
2022/05/27 09:46:10;;;;;;;3.78;1.35;;;18.60;57.70;;;;;;5072266;28;20029;-73
2022/05/27 09:48:36;;;;;;;3.95;1.30;;;18.70;58.90;;;;;;5072207;28;20017;-73
2022/05/27 09:51:07;;;;;;;4.38;1.50;;;18.70;59.10;;;;;;5072240;28;20469;-73
2022/05/27 09:53:53;;;;;;;2.75;1.30;;;18.40;59.40;;;;;;5072328;28;20021;-72
2022/05/27 09:56:38;;;;;;;3.53;1.58;;;18.40;59.30;;;;;;5072105;28;20468;-73
2022/05/27 09:59:21;;;;;;;5.50;1.20;;;18.60;59.90;;;;;;5072196;28;20055;-73
2022/05/27 10:01:46;;;;;;;5.55;1.80;;;18.60;59.50;;;;;;5072189;28;20473;-73
2022/05/27 10:04:14;;;;;;;1.98;1.23;;;18.70;59.70;;;;;;5070948;28;20027;-73
2022/05/27 10:06:40;;;;;;;5.15;1.48;;;18.70;59.80;;;;;;5075497;28;20028;-73
2022/05/27 10:09:09;;;;;;;3.30;1.20;;;18.80;57.60;;;;;;5075907;28;20037;-73
2022/05/27 10:11:56;;;;;;;3.65;1.30;;;18.90;58.10;;;;;;5075833;28;20512;-73
2022/05/27 10:14:29;;;;;;;2.03;1.48;;;19.00;55.70;;;;;;5075987;28;20021;-73
2022/05/27 10:17:14;;;;;;;5.95;1.20;;;18.80;57.30;;;;;;5076044;28;20028;-73
2022/05/27 10:19:42;;;;;;;3.33;1.60;;;19.00;57.10;;;;;;5076100;28;20028;-72
2022/05/27 10:22:27;;;;;;;4.22;1.60;;;19.00;56.70;;;;;;5076221;28;20020;-72
2022/05/27 10:25:02;;;;;;;1.67;1.23;;;19.10;57.10;;;;;;5075844;28;20089;-73
2022/05/27 10:27:52;;;;;;;2.50;1.17;;;18.90;54.00;;;;;;5075288;28;20028;-73
2022/05/27 10:30:23;;;;;;;2.90;1.45;;;18.70;56.10;;;;;;5069793;28;20520;-73
2022/05/27 10:32:49;;;;;;;2.78;1.13;;;19.00;56.80;;;;;;5073226;28;20086;-71
2022/05/27 10:35:21;;;;;;;3.88;1.52;;;19.00;57.10;;;;;;5074731;28;20036;-72
2022/05/27 10:38:10;;;;;;;2.33;1.30;;;19.20;56.80;;;;;;5073788;28;20021;-73
2022/05/27 10:40:38;;;;;;;2.90;1.38;;;19.50;55.60;;;;;;5075367;28;20082;-72
2022/05/27 10:43:19;;;;;;;3.15;1.48;;;19.80;54.80;;;;;;5075618;28;20032;-74
2022/05/27 10:45:48;;;;;;;3.63;1.00;;;20.00;51.80;;;;;;5074182;28;20025;-75
2022/05/27 10:48:52;;;;;;;4.43;1.80;;;20.10;52.20;;;;;;5074090;28;20060;-75
2022/05/27 10:51:36;;;;;;;1.13;1.00;;;20.30;48.60;;;;;;5075323;28;20488;-76
2022/05/27 10:54:39;;;;;;;2.13;1.20;;;20.20;49.30;;;;;;5074058;28;20373;-76
2022/05/27 11:04:07;;;;;;;3.78;1.50;;;20.20;50.90;;;;;;5075217;28;20086;-77
2022/05/27 11:07:02;;;;;;;1.92;1.10;;;19.80;52.50;;;;;;5074944;28;20044;-75
2022/05/27 11:09:47;;;;;;;2.42;1.20;;;19.90;51.50;;;;;;5074970;28;20536;-75
2022/05/27 11:15:10;;;;;;;3.10;1.30;;;19.90;53.10;;;;;;5074873;28;20024;-75
2022/05/27 11:15:55;;;;;;;3.10;1.25;;;19.80;50.70;;;;;;5074902;28;20028;-76
2022/05/27 11:18:51;;;;;;;2.75;1.35;;;20.00;50.70;;;;;;5074112;28;20026;-75
2022/05/27 11:21:35;;;;;;;2.73;1.10;;;20.20;48.40;;;;;;5075388;28;20079;-75
2022/05/27 11:24:15;;;;;;;3.97;1.23;;;20.20;48.70;;;;;;5074877;28;20743;-76
2022/05/27 11:26:59;;;;;;;3.60;1.23;;;20.30;48.80;;;;;;5074835;28;20503;-76
2022/05/27 11:29:49;;;;;;;2.65;1.17;;;20.40;47.30;;;;;;5074682;28;20052;-77
2022/05/27 11:32:53;;;;;;;3.22;1.38;;;20.10;48.10;;;;;;5074755;28;20040;-78
2022/05/27 11:35:55;;;;;;;3.92;1.27;;;20.60;47.40;;;;;;5074482;28;20073;-76
2022/05/27 11:38:48;;;;;;;2.67;1.40;;;20.90;46.60;;;;;;5074536;28;20082;-80
2022/05/27 11:41:19;;;;;;;1.80;0.90;;;20.80;47.00;;;;;;5073542;28;20029;-80
2022/05/27 11:43:52;;;;;;;2.45;1.20;;;20.70;45.70;;;;;;5074705;28;20457;-79
2022/05/27 11:46:31;;;;;;;2.35;1.40;;;20.70;45.30;;;;;;5075594;28;20082;-80
2022/05/27 11:49:12;;;;;;;1.80;1.02;;;21.00;45.60;;;;;;5074025;28;20028;-79
2022/05/27 11:51:52;;;;;;;1.50;1.00;;;20.80;46.00;;;;;;5075481;28;20488;-83
2022/05/27 11:54:36;;;;;;;2.20;0.88;;;21.00;48.20;;;;;;5074716;28;20020;-82
2022/05/27 11:57:22;;;;;;;1.70;1.02;;;21.50;43.60;;;;;;5076378;28;20028;-79
2022/05/27 12:00:07;;;;;;;2.78;1.20;;;21.30;43.30;;;;;;5075629;28;20391;-83
2022/05/27 12:02:58;;;;;;;1.88;0.95;;;21.20;44.10;;;;;;5073462;28;20441;-86
2022/05/27 12:05:31;;;;;;;2.90;0.95;;;20.90;44.90;;;;;;5077535;28;20021;-83
2022/05/27 12:08:10;;;;;;;2.03;1.10;;;21.10;44.40;;;;;;5076084;28;20036;-79
2022/05/27 12:10:54;;;;;;;1.98;1.10;;;21.20;43.20;;;;;;5075610;28;20032;-84
2022/05/27 12:13:27;;;;;;;3.72;1.45;;;21.50;42.90;;;;;;5076974;28;20024;-81
2022/05/27 12:16:03;;;;;;;2.88;1.10;;;21.50;43.00;;;;;;5074970;28;20025;-85
2022/05/27 12:18:42;;;;;;;4.22;1.02;;;21.60;41.30;;;;;;5076039;28;20032;-85
2022/05/27 12:21:11;;;;;;;1.85;0.90;;;21.60;41.70;;;;;;5075744;28;20028;-82
2022/05/27 12:23:46;;;;;;;3.20;0.95;;;21.60;41.50;;;;;;5074199;28;20119;-83
2022/05/27 12:26:11;;;;;;;3.22;1.00;;;21.70;42.10;;;;;;5073037;28;20032;-78
2022/05/27 12:28:42;;;;;;;1.77;1.00;;;21.80;40.50;;;;;;5073385;28;20056;-79
2022/05/27 12:31:08;;;;;;;0.93;0.80;;;22.00;41.40;;;;;;5073151;28;20070;-79
2022/05/27 12:33:37;;;;;;;10.05;1.20;;;22.00;39.70;;;;;;5073385;28;20021;-79
2022/05/27 12:36:12;;;;;;;4.13;1.27;;;22.00;39.50;;;;;;5073592;28;20156;-79
2022/05/27 12:38:47;;;;;;;2.72;1.20;;;21.60;41.30;;;;;;5073478;28;20020;-78
2022/05/27 12:41:39;;;;;;;6.13;1.47;;;21.20;43.70;;;;;;5073567;28;20081;-78
2022/05/27 12:44:28;;;;;;;3.67;1.15;;;21.30;42.40;;;;;;5073408;28;20024;-79
2022/05/27 12:47:07;;;;;;;3.20;1.42;;;21.70;42.40;;;;;;5072047;28;20077;-78
2022/05/27 12:49:34;;;;;;;4.03;1.10;;;21.50;42.40;;;;;;5073104;28;20075;-78
2022/05/27 12:52:02;;;;;;;2.88;0.98;;;21.10;43.80;;;;;;5073518;28;20023;-79
2022/05/27 12:54:50;;;;;;;2.90;1.10;;;21.00;43.90;;;;;;5073364;28;20028;-79
2022/05/27 13:03:33;;;;;;;2.38;1.20;;;20.90;45.60;;;;;;5073494;28;20059;-79
2022/05/27 13:06:26;;;;;;;3.17;0.90;;;21.10;44.90;;;;;;5073486;28;20494;-78
2022/05/27 13:08:52;;;;;;;6.03;1.10;;;21.50;44.80;;;;;;5073853;28;20150;-81
2022/05/27 13:11:24;;;;;;;2.20;1.17;;;21.40;45.00;;;;;;5073848;28;20060;-82
2022/05/27 13:13:50;;;;;;;3.95;1.55;;;21.40;44.20;;;;;;5071528;28;20571;-80
2022/05/27 13:16:24;;;;;;;5.07;1.30;;;21.20;45.30;;;;;;5072073;28;20066;-79
2022/05/27 13:19:03;;;;;;;1.55;1.10;;;21.00;47.00;;;;;;5072805;28;20025;-84
2022/05/27 13:21:37;;;;;;;2.42;1.08;;;21.10;46.40;;;;;;5069837;28;20376;-79
2022/05/27 13:24:25;;;;;;;7.70;1.30;;;21.10;46.20;;;;;;5070754;28;20036;-82
2022/05/27 13:27:13;;;;;;;2.28;1.20;;;21.00;47.10;;;;;;5073041;28;20013;-81
2022/05/27 13:30:00;;;;;;;5.35;1.10;;;21.00;46.60;;;;;;5072909;28;20175;-79
2022/05/27 13:32:36;;;;;;;4.70;1.08;;;21.10;46.40;;;;;;5073348;28;20071;-80
2022/05/27 13:35:14;;;;;;;2.95;1.20;;;21.40;46.90;;;;;;5073382;28;20020;-81
2022/05/27 13:37:40;;;;;;;2.80;1.00;;;21.90;44.50;;;;;;5073129;28;20151;-81
2022/05/27 13:40:08;;;;;;;5.20;1.10;;;21.70;44.90;;;;;;5072822;28;20055;-80
2022/05/27 13:42:42;;;;;;;4.35;1.13;;;21.90;43.90;;;;;;5072703;28;20031;-80
2022/05/27 13:45:12;;;;;;;2.08;1.00;;;22.10;43.90;;;;;;5071486;28;20074;-80
2022/05/27 13:47:44;;;;;;;1.38;0.95;;;21.90;42.80;;;;;;5072031;28;20096;-81
2022/05/27 13:50:31;;;;;;;2.08;0.80;;;21.50;43.90;;;;;;5071065;28;20085;-81
2022/05/27 13:52:58;;;;;;;3.88;1.23;;;21.50;44.00;;;;;;5071188;28;20060;-82
2022/05/27 13:55:29;;;;;;;3.00;0.95;;;21.40;44.30;;;;;;5072394;28;20047;-81
2022/05/27 13:58:01;;;;;;;3.15;1.15;;;21.60;44.70;;;;;;5072509;28;20036;-82